createdAt,value
2022-07-29T00:04:18.048Z,59.07
2022-07-29T00:09:19.879Z,59.11
2022-07-29T00:14:21.567Z,59.36
2022-07-29T00:19:23.139Z,59.13
2022-07-29T00:24:24.851Z,59.50
2022-07-29T00:29:34.872Z,59.40
2022-07-29T00:34:36.771Z,60.18
2022-07-29T00:39:38.342Z,60.56
2022-07-29T00:44:41.186Z,60.96
2022-07-29T00:49:43.179Z,60.19
2022-07-29T00:54:45.206Z,60.61
2022-07-29T01:00:07.045Z,61.56
2022-07-29T01:05:08.896Z,61.71
2022-07-29T01:10:14.851Z,61.56
2022-07-29T01:15:16.789Z,62.13
2022-07-29T01:20:43.043Z,63.26
2022-07-29T01:26:05.060Z,61.43
2022-07-29T01:31:10.149Z,61.23
2022-07-29T01:36:23.588Z,60.22
2022-07-29T01:41:27.646Z,60.92
2022-07-29T01:46:35.940Z,60.66
2022-07-29T01:51:47.232Z,61.25
2022-07-29T01:56:51.908Z,60.81
2022-07-29T02:01:55.706Z,61.56
2022-07-29T02:07:01.608Z,60.02
2022-07-29T02:12:05.008Z,61.67
2022-07-29T02:17:06.985Z,62.09
2022-07-29T02:22:11.776Z,62.64
2022-07-29T02:27:15.150Z,63.25
2022-07-29T02:32:18.552Z,64.54
2022-07-29T02:37:21.878Z,63.47
2022-07-29T02:42:27.438Z,63.13
2022-07-29T02:47:41.520Z,64.09
2022-07-29T02:52:59.771Z,63.96
2022-07-29T02:58:09.544Z,64.02
2022-07-29T03:03:15.919Z,63.60
2022-07-29T03:08:17.817Z,63.95
2022-07-29T03:13:20.079Z,65.13
2022-07-29T03:18:21.867Z,66.08
2022-07-29T03:23:24.511Z,66.07
2022-07-29T03:28:26.885Z,65.30
2022-07-29T03:33:28.465Z,64.72
2022-07-29T03:38:34.822Z,65.75
2022-07-29T03:43:49.596Z,65.89
2022-07-29T03:48:56.633Z,66.67
2022-07-29T03:53:59.189Z,67.68
2022-07-29T03:59:03.170Z,68.01
2022-07-29T04:04:05.774Z,69.18
2022-07-29T04:09:09.946Z,68.98
2022-07-29T04:14:11.539Z,69.73
2022-07-29T04:19:13.019Z,68.89
2022-07-29T04:24:14.840Z,69.81
2022-07-29T04:29:16.694Z,69.38
2022-07-29T04:34:18.830Z,68.56
2022-07-29T04:39:22.970Z,67.85
2022-07-29T04:44:28.463Z,67.40
2022-07-29T04:49:30.599Z,66.67
2022-07-29T04:54:32.281Z,64.96
2022-07-29T04:59:33.757Z,62.18
2022-07-29T05:04:35.209Z,56.32
2022-07-29T05:09:36.798Z,52.30
2022-07-29T05:14:38.415Z,54.80
2022-07-29T05:19:40.022Z,49.73
2022-07-29T05:24:41.468Z,43.58
2022-07-29T05:29:45.584Z,47.83
2022-07-29T05:34:51.216Z,41.51
2022-07-29T05:39:56.714Z,48.18
2022-07-29T05:44:58.839Z,55.12
2022-07-29T05:50:00.364Z,52.38
2022-07-29T05:55:01.979Z,47.15
2022-07-29T06:00:04.723Z,43.29
2022-07-29T06:05:06.696Z,51.42
2022-07-29T06:10:14.827Z,55.93
2022-07-29T06:15:16.370Z,57.46
2022-07-29T06:20:17.962Z,59.01
2022-07-29T06:25:28.904Z,60.16
2022-07-29T06:30:30.434Z,59.78
2022-07-29T06:35:38.453Z,58.58
2022-07-29T06:40:46.580Z,58.63
2022-07-29T06:45:49.236Z,56.42
2022-07-29T06:50:50.721Z,59.45
2022-07-29T06:55:52.583Z,58.17
2022-07-29T07:00:57.355Z,57.17
2022-07-29T07:05:59.224Z,55.95
2022-07-29T07:11:01.730Z,55.82
2022-07-29T07:16:04.184Z,51.29
2022-07-29T07:21:05.902Z,52.04
2022-07-29T07:26:07.460Z,54.01
2022-07-29T07:31:10.200Z,43.30
2022-07-29T07:36:11.729Z,42.08
2022-07-29T07:41:13.306Z,42.67
2022-07-29T07:46:15.226Z,40.53
2022-07-29T07:51:16.724Z,33.55
2022-07-29T07:56:18.281Z,34.37
2022-07-29T08:01:19.933Z,36.88
2022-07-29T08:06:21.615Z,33.99
2022-07-29T08:11:23.245Z,32.97
2022-07-29T08:16:24.878Z,37.25
2022-07-29T08:21:26.482Z,38.33
2022-07-29T08:26:28.084Z,39.04
2022-07-29T08:31:29.595Z,37.37
2022-07-29T08:36:32.165Z,36.99
2022-07-29T08:41:33.929Z,38.38
2022-07-29T08:46:38.659Z,39.33
2022-07-29T08:51:48.543Z,41.05
2022-07-29T08:56:51.854Z,40.14
2022-07-29T09:01:59.228Z,39.75
2022-07-29T09:07:04.758Z,40.23
2022-07-29T09:12:06.934Z,39.95
2022-07-29T09:17:09.441Z,40.23
2022-07-29T09:22:10.967Z,40.15
2022-07-29T09:27:24.165Z,38.97
2022-07-29T09:32:25.779Z,39.34
2022-07-29T09:37:28.883Z,37.97
2022-07-29T09:42:30.879Z,38.44
2022-07-29T09:47:47.690Z,38.18
2022-07-29T09:52:51.030Z,37.11
2022-07-29T09:57:52.521Z,38.70
2022-07-29T10:03:01.686Z,38.20
2022-07-29T10:08:03.428Z,39.37
2022-07-29T10:13:15.993Z,39.15
2022-07-29T10:18:18.030Z,40.47
2022-07-29T10:23:19.794Z,39.55
2022-07-29T10:28:21.298Z,39.50
2022-07-29T10:33:44.527Z,39.02
2022-07-29T10:38:49.421Z,39.00
2022-07-29T10:43:52.631Z,40.02
2022-07-29T10:49:05.127Z,39.36
2022-07-29T10:54:09.547Z,40.48
2022-07-29T10:59:21.524Z,40.68
2022-07-29T11:04:44.973Z,40.04
2022-07-29T11:10:15.213Z,40.69
2022-07-29T11:15:20.841Z,41.38
2022-07-29T11:20:46.097Z,40.43
2022-07-29T11:26:10.361Z,39.65
2022-07-29T11:31:17.637Z,40.05
2022-07-29T11:36:27.760Z,39.12
2022-07-29T11:41:29.484Z,40.24
2022-07-29T11:46:50.303Z,40.90
2022-07-29T11:51:57.491Z,39.69
2022-07-29T11:57:00.073Z,39.49
2022-07-29T12:02:33.127Z,40.12
2022-07-29T12:07:34.959Z,39.82
2022-07-29T12:12:37.418Z,39.56
2022-07-29T12:17:39.632Z,39.88
2022-07-29T12:22:42.655Z,40.86
2022-07-29T12:27:46.145Z,40.84
2022-07-29T12:32:49.300Z,40.49
2022-07-29T12:37:50.993Z,40.23
2022-07-29T12:43:16.833Z,40.85
2022-07-29T12:48:33.125Z,40.77
2022-07-29T12:53:36.119Z,40.72
2022-07-29T12:58:39.201Z,38.94
2022-07-29T13:03:56.644Z,39.47
2022-07-29T13:09:14.353Z,39.40
2022-07-29T13:14:34.851Z,39.63
2022-07-29T13:19:53.897Z,39.59
2022-07-29T13:25:01.055Z,40.70
2022-07-29T13:30:05.480Z,40.27
2022-07-29T13:35:09.115Z,40.49
2022-07-29T13:40:11.960Z,39.99
2022-07-29T13:45:13.869Z,39.60
2022-07-29T13:50:15.361Z,39.95
2022-07-29T13:55:16.896Z,39.90
2022-07-29T14:00:18.701Z,39.13
2022-07-29T14:05:20.375Z,41.13
2022-07-29T14:10:21.911Z,39.85
2022-07-29T14:15:23.582Z,39.88
2022-07-29T14:20:25.051Z,39.39
2022-07-29T14:25:26.512Z,39.21
2022-07-29T14:30:28.210Z,39.60
2022-07-29T14:35:29.661Z,39.16
2022-07-29T14:40:31.136Z,39.56
2022-07-29T14:45:32.757Z,39.46
2022-07-29T14:50:34.495Z,38.95
2022-07-29T14:55:35.991Z,39.35
2022-07-29T15:00:37.531Z,39.11
2022-07-29T15:05:39.101Z,40.02
2022-07-29T15:10:40.559Z,40.00
2022-07-29T15:15:42.012Z,39.91
2022-07-29T15:20:43.467Z,40.84
2022-07-29T15:25:44.946Z,40.68
2022-07-29T15:30:46.504Z,41.70
2022-07-29T15:35:47.954Z,42.22
2022-07-29T15:40:49.422Z,44.45
2022-07-29T15:45:51.525Z,44.80
2022-07-29T15:50:53.046Z,44.98
2022-07-29T15:55:54.585Z,44.76
2022-07-29T16:00:56.303Z,44.42
2022-07-29T16:05:57.939Z,44.46
2022-07-29T16:10:59.675Z,45.75
2022-07-29T16:16:02.524Z,44.65
2022-07-29T16:21:04.719Z,47.61
2022-07-29T16:26:06.927Z,46.22
2022-07-29T16:31:08.756Z,46.34
2022-07-29T16:36:10.346Z,45.65
2022-07-29T16:41:15.176Z,44.65
2022-07-29T16:46:18.886Z,43.74
2022-07-29T16:51:21.163Z,42.43
2022-07-29T16:56:23.207Z,42.77
2022-07-29T17:01:24.743Z,42.97
2022-07-29T17:06:26.323Z,42.83
2022-07-29T17:11:52.999Z,43.45
2022-07-29T17:16:51.652Z,43.67
2022-07-29T17:22:18.663Z,43.60
2022-07-29T17:27:20.803Z,44.09
2022-07-29T17:32:22.290Z,44.73
2022-07-29T17:37:23.776Z,44.78
2022-07-29T17:42:25.406Z,45.05
2022-07-29T17:47:26.874Z,45.09
2022-07-29T17:52:28.356Z,45.61
2022-07-29T17:57:29.807Z,46.18
2022-07-29T18:02:31.372Z,47.13
2022-07-29T18:07:32.889Z,47.24
2022-07-29T18:12:34.461Z,47.42
2022-07-29T18:17:55.850Z,47.50
2022-07-29T18:22:57.474Z,47.64
2022-07-29T18:28:00.630Z,47.81
2022-07-29T18:33:20.790Z,47.59
2022-07-29T18:38:23.468Z,47.53
2022-07-29T18:43:24.971Z,47.91
2022-07-29T18:48:26.479Z,48.07
2022-07-29T18:53:28.038Z,48.37
2022-07-29T18:58:29.511Z,47.91
2022-07-29T19:03:30.989Z,48.27
2022-07-29T19:08:32.541Z,48.29
2022-07-29T19:13:34.088Z,48.41
2022-07-29T19:18:35.581Z,48.89
2022-07-29T19:24:06.381Z,49.23
2022-07-29T19:28:58.714Z,49.91
2022-07-29T19:34:00.283Z,48.77
2022-07-29T19:39:01.797Z,49.68
2022-07-29T19:44:03.589Z,49.17
2022-07-29T19:49:05.254Z,49.50
2022-07-29T19:54:07.229Z,49.75
2022-07-29T19:59:11.103Z,49.82
2022-07-29T20:04:13.857Z,50.78
2022-07-29T20:09:20.369Z,51.38
2022-07-29T20:14:22.741Z,51.01
2022-07-29T20:19:24.370Z,52.04
2022-07-29T20:24:25.864Z,52.09
2022-07-29T20:29:27.458Z,52.31
2022-07-29T20:34:29.074Z,52.87
2022-07-29T20:39:30.601Z,53.37
2022-07-29T20:44:32.171Z,53.70
2022-07-29T20:49:33.764Z,53.99
2022-07-29T20:54:35.310Z,54.13
2022-07-29T20:59:36.885Z,54.42
2022-07-29T21:04:38.336Z,54.83
2022-07-29T21:09:39.931Z,55.19
2022-07-29T21:14:41.480Z,55.12
2022-07-29T21:19:43.008Z,55.56
2022-07-29T21:24:44.767Z,55.39
2022-07-29T21:29:46.300Z,54.88
2022-07-29T21:34:47.761Z,54.88
2022-07-29T21:39:49.863Z,55.05
2022-07-29T21:44:51.628Z,55.82
2022-07-29T21:49:53.095Z,54.50
2022-07-29T21:54:54.817Z,54.69
2022-07-29T21:59:59.583Z,55.76
2022-07-29T22:05:04.349Z,55.83
2022-07-29T22:10:06.451Z,54.83
2022-07-29T22:15:08.805Z,54.46
2022-07-29T22:20:12.620Z,54.55
2022-07-29T22:25:14.240Z,54.83
2022-07-29T22:30:16.633Z,55.20
2022-07-29T22:35:18.179Z,55.31
2022-07-29T22:40:19.760Z,55.50
2022-07-29T22:45:21.285Z,56.75
2022-07-29T22:50:22.959Z,57.40
2022-07-29T22:55:24.434Z,57.74
2022-07-29T23:00:26.015Z,58.08
2022-07-29T23:05:27.814Z,57.75
2022-07-29T23:10:29.498Z,57.87
2022-07-29T23:15:30.966Z,58.48
2022-07-29T23:20:32.499Z,58.13
2022-07-29T23:25:34.082Z,58.21
2022-07-29T23:30:35.694Z,57.79
2022-07-29T23:35:37.224Z,58.23
2022-07-29T23:40:38.678Z,59.27
2022-07-29T23:45:44.556Z,60.34
2022-07-29T23:50:46.740Z,59.70
2022-07-29T23:55:48.210Z,60.79
